Archival Weather

Heathrow

Heathrow, United Kingdom (EGLL)

Report from: Thursday, June 23, 2022 8:50 AM BST
Current time: Tuesday, August 16, 2022 8:16 AM BST

Current weather
Weather history
Weather forecast

Present weatherLight rain
Temperature17.0°C (62.6°F)
Dew point12.0°C (53.6°F)
Winds 4 kts (2.1 m/s, 4.6 mph) Vrb
Winds variableWinds variable from East (90°) to North (350°)
Visibility6.2 mi. (10 km)
Altimeter29.85 in.Hg (1011 mB)
Relative humidity72 %
Density altitude508 ft. (155 m)
Remarks Fully automated report
Flight conditions Visual Meteorological Conditions
Raw dataEGLL 230750Z AUTO 05004KT 350V090 9999 -RA //////TCU 17/12 Q1011
An error has occurred. This application may no longer respond until reloaded. Reload 🗙